createdAt,value
2022-09-16T00:01:21.253Z,94147.19
2022-09-16T00:03:23.000Z,94139.06
2022-09-16T00:05:25.417Z,94135.19
2022-09-16T00:07:27.145Z,94138.50
2022-09-16T00:09:28.842Z,94134.56
2022-09-16T00:11:34.478Z,94129.06
2022-09-16T00:13:36.083Z,94144.81
2022-09-16T00:15:37.979Z,94144.00
2022-09-16T00:17:39.825Z,94157.69
2022-09-16T00:19:41.475Z,94153.53
2022-09-16T00:21:43.036Z,94162.22
2022-09-16T00:23:44.782Z,94160.19
2022-09-16T00:25:56.076Z,94160.03
2022-09-16T00:27:57.728Z,94152.91
2022-09-16T00:29:59.520Z,94135.34
2022-09-16T00:32:01.201Z,94137.75
2022-09-16T00:34:03.131Z,94134.84
2022-09-16T00:36:10.957Z,94136.44
2022-09-16T00:38:13.131Z,94134.34
2022-09-16T00:40:14.774Z,94128.63
2022-09-16T00:42:18.066Z,94141.41
2022-09-16T00:44:50.430Z,94144.59
2022-09-16T00:46:52.402Z,94148.47
2022-09-16T00:48:54.136Z,94136.44
2022-09-16T00:51:00.906Z,94128.41
2022-09-16T00:53:02.959Z,94134.97
2022-09-16T00:55:07.847Z,94142.88
2022-09-16T00:57:11.085Z,94141.84
2022-09-16T00:59:20.072Z,94158.72
2022-09-16T01:01:22.023Z,94159.78
2022-09-16T01:03:25.254Z,94146.19
2022-09-16T01:05:27.761Z,94157.97
2022-09-16T01:07:33.123Z,94154.28
2022-09-16T01:09:34.772Z,94151.03
2022-09-16T01:11:36.481Z,94150.56
2022-09-16T01:13:39.001Z,94151.97
2022-09-16T01:15:43.299Z,94161.00
2022-09-16T01:18:03.086Z,94159.41
2022-09-16T01:20:07.680Z,94160.25
2022-09-16T01:22:27.317Z,94154.44
2022-09-16T01:25:04.513Z,94160.97
2022-09-16T01:27:08.834Z,94160.19
2022-09-16T01:29:32.039Z,94155.81
2022-09-16T01:31:57.867Z,94158.97
2022-09-16T01:34:12.616Z,94155.50
2022-09-16T01:36:30.808Z,94159.31
2022-09-16T01:38:56.018Z,94148.16
2022-09-16T01:41:16.473Z,94146.38
2022-09-16T01:43:21.931Z,94148.03
2022-09-16T01:45:41.685Z,94142.25
2022-09-16T01:47:57.223Z,94139.00
2022-09-16T01:50:09.235Z,94146.03
2022-09-16T01:52:32.533Z,94147.00
2022-09-16T01:54:47.596Z,94136.72
2022-09-16T01:57:11.985Z,94137.22
2022-09-16T01:59:29.216Z,94134.06
2022-09-16T02:01:42.344Z,94139.00
2022-09-16T02:03:48.352Z,94127.88
2022-09-16T02:06:21.102Z,94133.69
2022-09-16T02:08:39.677Z,94143.47
2022-09-16T02:10:45.324Z,94135.47
2022-09-16T02:12:49.137Z,94132.53
2022-09-16T02:14:52.589Z,94132.81
2022-09-16T02:17:00.381Z,94120.75
2022-09-16T02:19:06.976Z,94138.94
2022-09-16T02:21:11.921Z,94138.81
2022-09-16T02:23:20.995Z,94130.47
2022-09-16T02:25:23.413Z,94133.47
2022-09-16T02:27:25.939Z,94132.78
2022-09-16T02:29:32.696Z,94118.50
2022-09-16T02:31:36.351Z,94145.44
2022-09-16T02:33:44.684Z,94162.75
2022-09-16T02:35:48.625Z,94130.69
2022-09-16T02:38:00.223Z,94139.94
2022-09-16T02:40:06.397Z,94145.28
2022-09-16T02:42:08.281Z,94148.13
2022-09-16T02:44:10.893Z,94145.69
2022-09-16T02:46:39.327Z,94157.03
2022-09-16T02:48:51.178Z,94154.78
2022-09-16T02:51:03.173Z,94158.38
2022-09-16T02:53:14.132Z,94153.84
2022-09-16T02:55:21.437Z,94150.88
2022-09-16T02:57:23.195Z,94149.84
2022-09-16T02:59:25.420Z,94160.56
2022-09-16T03:01:29.011Z,94166.84
2022-09-16T03:03:30.563Z,94174.91
2022-09-16T03:05:32.219Z,94169.34
2022-09-16T03:07:33.901Z,94177.13
2022-09-16T03:09:37.647Z,94169.50
2022-09-16T03:11:44.900Z,94176.91
2022-09-16T03:14:26.637Z,94186.31
2022-09-16T03:16:34.204Z,94193.00
2022-09-16T03:18:46.920Z,94187.66
2022-09-16T03:21:17.086Z,94190.03
2022-09-16T03:23:29.038Z,94189.78
2022-09-16T03:25:42.758Z,94196.81
2022-09-16T03:28:12.435Z,94194.38
2022-09-16T03:30:14.295Z,94173.97
2022-09-16T03:32:29.900Z,94177.28
2022-09-16T03:34:40.275Z,94165.16
2022-09-16T03:36:46.065Z,94165.97
2022-09-16T03:38:48.698Z,94175.69
2022-09-16T03:40:51.042Z,94167.53
2022-09-16T03:42:52.664Z,94153.25
2022-09-16T03:44:57.410Z,94153.22
2022-09-16T03:46:59.071Z,94149.28
2022-09-16T03:49:00.759Z,94139.38
2022-09-16T03:51:02.388Z,94141.94
2022-09-16T03:53:04.293Z,94135.94
2022-09-16T03:55:07.579Z,94145.34
2022-09-16T03:57:09.704Z,94138.47
2022-09-16T03:59:11.354Z,94144.78
2022-09-16T04:01:14.296Z,94160.69
2022-09-16T04:03:15.933Z,94177.72
2022-09-16T04:05:17.549Z,94183.28
2022-09-16T04:07:19.228Z,94193.69
2022-09-16T04:09:20.918Z,94194.00
2022-09-16T04:11:22.637Z,94200.09
2022-09-16T04:13:24.395Z,94195.78
2022-09-16T04:15:26.158Z,94194.59
2022-09-16T04:17:28.136Z,94206.97
2022-09-16T04:19:29.714Z,94203.84
2022-09-16T04:21:31.305Z,94204.63
2022-09-16T04:23:33.081Z,94211.34
2022-09-16T04:25:34.977Z,94218.03
2022-09-16T04:27:36.706Z,94222.66
2022-09-16T04:29:38.644Z,94216.41
2022-09-16T04:31:40.291Z,94217.09
2022-09-16T04:33:42.300Z,94207.31
2022-09-16T04:35:44.170Z,94210.66
2022-09-16T04:37:46.513Z,94205.47
2022-09-16T04:39:48.142Z,94207.56
2022-09-16T04:41:49.816Z,94207.25
2022-09-16T04:43:53.125Z,94208.41
2022-09-16T04:45:55.020Z,94211.09
2022-09-16T04:47:57.919Z,94214.44
2022-09-16T04:49:59.608Z,94214.28
2022-09-16T04:52:01.325Z,94213.00
2022-09-16T04:54:02.910Z,94228.88
2022-09-16T04:56:28.599Z,94227.66
2022-09-16T04:58:30.170Z,94228.56
2022-09-16T05:00:31.960Z,94219.94
2022-09-16T05:02:33.607Z,94215.34
2022-09-16T05:04:35.251Z,94214.47
2022-09-16T05:06:39.580Z,94211.41
2022-09-16T05:08:41.463Z,94220.06
2022-09-16T05:10:43.029Z,94210.84
2022-09-16T05:12:49.312Z,94196.31
2022-09-16T05:14:51.098Z,94206.94
2022-09-16T05:16:52.693Z,94213.47
2022-09-16T05:18:57.098Z,94209.06
2022-09-16T05:21:02.615Z,94205.19
2022-09-16T05:23:04.675Z,94197.00
2022-09-16T05:25:07.820Z,94187.50
2022-09-16T05:27:09.494Z,94185.50
2022-09-16T05:29:13.968Z,94187.19
2022-09-16T05:31:17.406Z,94196.00
2022-09-16T05:33:19.014Z,94193.88
2022-09-16T05:35:20.617Z,94184.97
2022-09-16T05:37:22.256Z,94193.13
2022-09-16T05:39:25.249Z,94179.78
2022-09-16T05:41:27.837Z,94182.50
2022-09-16T05:43:29.704Z,94185.31
2022-09-16T05:45:32.568Z,94174.25
2022-09-16T05:47:34.369Z,94177.88
2022-09-16T05:49:37.259Z,94174.78
2022-09-16T05:51:40.281Z,94178.59
2022-09-16T05:53:42.217Z,94182.44
2022-09-16T05:55:44.052Z,94190.00
2022-09-16T05:57:46.205Z,94188.25
2022-09-16T05:59:47.804Z,94188.88
2022-09-16T06:01:49.529Z,94179.81
2022-09-16T06:03:52.143Z,94180.69
2022-09-16T06:06:00.766Z,94186.41
2022-09-16T06:08:02.758Z,94185.16
2022-09-16T06:10:04.682Z,94184.41
2022-09-16T06:12:06.428Z,94183.63
2022-09-16T06:14:08.880Z,94186.94
2022-09-16T06:16:10.879Z,94184.53
2022-09-16T06:18:15.958Z,94187.75
2022-09-16T06:20:17.565Z,94180.28
2022-09-16T06:22:19.099Z,94177.91
2022-09-16T06:24:21.196Z,94170.91
2022-09-16T06:26:25.168Z,94180.28
2022-09-16T06:28:26.797Z,94167.44
2022-09-16T06:30:31.111Z,94171.22
2022-09-16T06:32:33.529Z,94169.91
2022-09-16T06:34:35.137Z,94176.66
2022-09-16T06:36:42.807Z,94176.44
2022-09-16T06:38:46.996Z,94175.63
2022-09-16T06:40:49.683Z,94184.25
2022-09-16T06:42:58.305Z,94185.38
2022-09-16T06:45:03.831Z,94181.41
2022-09-16T06:47:05.567Z,94192.19
2022-09-16T06:49:07.241Z,94196.78
2022-09-16T06:51:38.498Z,94190.69
2022-09-16T06:53:40.576Z,94189.09
2022-09-16T06:55:42.323Z,94187.53
2022-09-16T06:57:44.169Z,94187.59
2022-09-16T06:59:46.409Z,94182.53
2022-09-16T07:01:48.042Z,94189.53
2022-09-16T07:03:51.841Z,94191.31
2022-09-16T07:06:01.885Z,94192.63
2022-09-16T07:08:03.662Z,94181.31
2022-09-16T07:10:07.450Z,94189.66
2022-09-16T07:12:09.443Z,94187.81
2022-09-16T07:14:11.135Z,94189.75
2022-09-16T07:16:15.404Z,94191.78
2022-09-16T07:18:17.036Z,94189.84
2022-09-16T07:20:18.592Z,94186.63
2022-09-16T07:22:20.300Z,94186.25
2022-09-16T07:24:21.945Z,94177.09
2022-09-16T07:26:28.911Z,94181.88
2022-09-16T07:28:31.583Z,94184.59
2022-09-16T07:30:34.428Z,94177.91
2022-09-16T07:32:36.283Z,94187.66
2022-09-16T07:34:37.941Z,94187.47
2022-09-16T07:36:42.653Z,94190.56
2022-09-16T07:38:44.323Z,94182.28
2022-09-16T07:40:46.010Z,94168.69
2022-09-16T07:42:47.653Z,94165.56
2022-09-16T07:44:49.261Z,94148.50
2022-09-16T07:46:51.600Z,94149.63
2022-09-16T07:48:54.506Z,94149.88
2022-09-16T07:51:07.689Z,94150.16
2022-09-16T07:53:09.451Z,94151.78
2022-09-16T07:55:11.941Z,94156.59
2022-09-16T07:57:13.536Z,94157.66
2022-09-16T07:59:19.075Z,94149.06
2022-09-16T08:01:21.578Z,94150.97
2022-09-16T08:03:23.331Z,94154.19
2022-09-16T08:05:25.066Z,94142.41
2022-09-16T08:07:26.627Z,94139.19
2022-09-16T08:09:49.888Z,94149.09
2022-09-16T08:11:50.441Z,94146.84
2022-09-16T08:13:52.054Z,94142.84
2022-09-16T08:15:54.433Z,94127.31
2022-09-16T08:17:56.136Z,94132.47
2022-09-16T08:19:57.829Z,94136.78
2022-09-16T08:21:59.485Z,94131.38
2022-09-16T08:24:01.218Z,94118.81
2022-09-16T08:26:03.305Z,94127.13
2022-09-16T08:28:04.896Z,94126.31
2022-09-16T08:30:07.028Z,94128.69
2022-09-16T08:32:08.848Z,94126.53
2022-09-16T08:34:10.467Z,94122.53
2022-09-16T08:36:15.061Z,94130.84
2022-09-16T08:38:16.741Z,94117.72
2022-09-16T08:42:36.957Z,94114.47
2022-09-16T08:45:15.223Z,94111.22
2022-09-16T08:47:44.711Z,94111.47
2022-09-16T08:49:47.481Z,94112.06
2022-09-16T08:51:50.104Z,94105.09
2022-09-16T08:53:59.922Z,94109.63
2022-09-16T08:56:05.776Z,94099.72
2022-09-16T08:58:19.903Z,94104.00
2022-09-16T09:00:21.914Z,94108.81
2022-09-16T09:02:44.097Z,94110.13
2022-09-16T09:04:46.237Z,94108.78
2022-09-16T09:07:23.310Z,94106.38
2022-09-16T09:10:08.583Z,94108.28
2022-09-16T09:12:25.380Z,94124.94
2022-09-16T09:14:45.559Z,94118.25
2022-09-16T09:17:17.935Z,94115.81
2022-09-16T09:19:22.353Z,94110.47
2022-09-16T09:21:50.638Z,94116.09
2022-09-16T09:24:18.451Z,94113.69
2022-09-16T09:26:22.436Z,94107.50
2022-09-16T09:28:58.284Z,94108.31
2022-09-16T09:31:31.919Z,94101.38
2022-09-16T09:33:54.795Z,94112.88
2022-09-16T09:35:56.572Z,94112.63
2022-09-16T09:38:01.684Z,94112.06
2022-09-16T09:40:25.006Z,94111.00
2022-09-16T09:42:33.139Z,94118.50
2022-09-16T09:44:48.302Z,94116.91
2022-09-16T09:46:54.730Z,94123.91
2022-09-16T09:49:11.530Z,94121.72
2022-09-16T09:51:27.811Z,94132.50
2022-09-16T09:53:33.832Z,94129.56
2022-09-16T09:55:35.852Z,94131.69
2022-09-16T09:57:41.175Z,94139.97
2022-09-16T10:00:10.473Z,94146.88
2022-09-16T10:02:19.474Z,94160.78
2022-09-16T10:04:21.095Z,94168.63
2022-09-16T10:06:28.100Z,94180.19
2022-09-16T10:08:46.316Z,94183.09
2022-09-16T10:10:52.705Z,94187.91
2022-09-16T10:12:54.684Z,94202.13
2022-09-16T10:14:56.556Z,94205.88
2022-09-16T10:17:02.959Z,94206.91
2022-09-16T10:19:06.164Z,94236.38
2022-09-16T10:21:10.664Z,94258.28
2022-09-16T10:23:13.553Z,94283.91
2022-09-16T10:25:25.398Z,94295.72
2022-09-16T10:27:28.421Z,94316.97
2022-09-16T10:29:30.079Z,94329.28
2022-09-16T10:31:42.001Z,94344.38
2022-09-16T10:33:44.814Z,94366.72
2022-09-16T10:35:58.262Z,94365.06
2022-09-16T10:38:04.460Z,94358.56
2022-09-16T10:40:07.753Z,94368.03
2022-09-16T10:42:23.549Z,94376.44
2022-09-16T10:44:28.398Z,94363.19
2022-09-16T10:46:30.825Z,94360.94
2022-09-16T10:48:34.674Z,94355.66
2022-09-16T10:50:36.383Z,94358.00
2022-09-16T10:52:43.080Z,94359.44
2022-09-16T10:54:45.175Z,94356.84
2022-09-16T10:56:51.753Z,94342.38
2022-09-16T10:59:11.143Z,94329.78
2022-09-16T11:01:21.871Z,94308.31
2022-09-16T11:03:35.819Z,94300.25
2022-09-16T11:06:16.043Z,94280.91
2022-09-16T11:08:36.438Z,94263.19
2022-09-16T11:10:53.931Z,94258.66
2022-09-16T11:13:13.470Z,94228.69
2022-09-16T11:15:31.988Z,94207.59
2022-09-16T11:18:07.448Z,94206.28
2022-09-16T11:20:30.256Z,94190.50
2022-09-16T11:22:44.108Z,94194.00
2022-09-16T11:24:57.599Z,94183.47
2022-09-16T11:27:21.996Z,94166.81
2022-09-16T11:29:32.611Z,94160.50
2022-09-16T11:31:40.983Z,94154.34
2022-09-16T11:34:01.526Z,94142.53
2022-09-16T11:36:37.685Z,94135.91
2022-09-16T11:39:12.900Z,94135.66
2022-09-16T11:41:43.834Z,94141.78
2022-09-16T11:44:16.237Z,94145.59
2022-09-16T11:46:30.071Z,94137.78
2022-09-16T11:49:10.255Z,94138.63
2022-09-16T11:51:18.305Z,94144.03
2022-09-16T11:53:41.490Z,94134.91
2022-09-16T11:56:06.202Z,94136.34
2022-09-16T11:58:16.957Z,94114.16
2022-09-16T12:00:19.254Z,94102.09
2022-09-16T12:02:36.581Z,94101.06
2022-09-16T12:04:46.737Z,94107.75
2022-09-16T12:07:02.115Z,94106.94
2022-09-16T12:09:19.475Z,94110.16
2022-09-16T12:11:33.078Z,94125.16
2022-09-16T12:13:46.528Z,94136.13
2022-09-16T12:15:55.179Z,94141.00
2022-09-16T12:18:09.727Z,94142.88
2022-09-16T12:20:15.146Z,94144.13
2022-09-16T12:22:41.032Z,94148.66
2022-09-16T12:24:47.736Z,94136.50
2022-09-16T12:27:21.650Z,94144.00
2022-09-16T12:29:51.206Z,94144.31
2022-09-16T12:31:57.090Z,94151.59
2022-09-16T12:34:14.687Z,94148.03
2022-09-16T12:36:23.266Z,94146.91
2022-09-16T12:38:25.704Z,94147.78
2022-09-16T12:40:48.595Z,94136.91
2022-09-16T12:43:11.427Z,94154.25
2022-09-16T12:45:34.819Z,94154.91
2022-09-16T12:47:55.364Z,94166.34
2022-09-16T12:50:16.461Z,94179.09
2022-09-16T12:52:36.661Z,94175.03
2022-09-16T12:55:06.590Z,94185.88
2022-09-16T12:57:51.856Z,94191.44
2022-09-16T13:00:07.748Z,94215.72
2022-09-16T13:02:16.667Z,94225.94
2022-09-16T13:04:26.151Z,94228.31
2022-09-16T13:06:31.615Z,94226.59
2022-09-16T13:08:34.723Z,94241.81
2022-09-16T13:13:01.883Z,94262.03
2022-09-16T13:15:05.576Z,94266.34
2022-09-16T13:17:10.313Z,94268.28
2022-09-16T13:19:44.809Z,94261.84
2022-09-16T13:21:47.356Z,94264.28
2022-09-16T13:23:54.424Z,94272.63
2022-09-16T13:26:07.512Z,94272.47
2022-09-16T13:28:28.316Z,94260.16
2022-09-16T13:30:33.089Z,94251.13
2022-09-16T13:32:43.474Z,94252.50
2022-09-16T13:34:45.077Z,94254.28
2022-09-16T13:36:46.738Z,94230.53
2022-09-16T13:38:56.148Z,94204.28
2022-09-16T13:41:00.552Z,94195.03
2022-09-16T13:43:08.230Z,94178.94
2022-09-16T13:45:48.510Z,94152.72
2022-09-16T13:47:50.093Z,94126.56
2022-09-16T13:49:59.426Z,94122.03
2022-09-16T13:52:11.410Z,94126.97
2022-09-16T13:54:21.997Z,94134.56
2022-09-16T13:56:34.208Z,94123.00
2022-09-16T13:58:38.943Z,94124.44
2022-09-16T14:00:52.474Z,94129.59
2022-09-16T14:03:26.148Z,94124.28
2022-09-16T14:05:37.082Z,94125.84
2022-09-16T14:07:38.584Z,94132.53
2022-09-16T14:09:45.442Z,94128.56
2022-09-16T14:11:57.102Z,94130.84
2022-09-16T14:14:07.659Z,94148.06
2022-09-16T14:16:16.179Z,94170.53
2022-09-16T14:18:21.211Z,94197.31
2022-09-16T14:20:24.696Z,94200.53
2022-09-16T14:22:27.696Z,94192.25
2022-09-16T14:24:37.919Z,94179.09
2022-09-16T14:26:50.320Z,94171.75
2022-09-16T14:29:02.356Z,94158.56
2022-09-16T14:31:08.807Z,94159.06
2022-09-16T14:33:11.092Z,94138.66
2022-09-16T14:35:18.956Z,94141.78
2022-09-16T14:37:21.139Z,94133.66
2022-09-16T14:39:24.210Z,94134.56
2022-09-16T14:41:38.690Z,94134.97
2022-09-16T14:43:40.527Z,94132.03
2022-09-16T14:45:47.198Z,94143.22
2022-09-16T14:47:52.111Z,94148.03
2022-09-16T14:50:15.089Z,94150.88
2022-09-16T14:52:21.894Z,94138.44
2022-09-16T14:54:25.202Z,94137.38
2022-09-16T14:56:27.009Z,94140.78
2022-09-16T14:58:31.501Z,94156.38
2022-09-16T15:00:42.095Z,94170.38
2022-09-16T15:02:46.418Z,94170.06
2022-09-16T15:04:52.275Z,94173.13
2022-09-16T15:07:01.825Z,94166.75
2022-09-16T15:09:32.595Z,94163.91
2022-09-16T15:11:47.546Z,94169.66
2022-09-16T15:13:51.574Z,94160.97
2022-09-16T15:15:57.384Z,94154.91
2022-09-16T15:18:00.202Z,94156.16
2022-09-16T15:20:01.916Z,94155.44
2022-09-16T15:22:04.738Z,94163.19
2022-09-16T15:24:17.270Z,94141.69
2022-09-16T15:26:29.269Z,94096.13
2022-09-16T15:28:31.052Z,94049.50
2022-09-16T15:30:32.679Z,94033.28
2022-09-16T15:32:44.038Z,94040.56
2022-09-16T15:34:46.607Z,94046.53
2022-09-16T15:36:50.713Z,94050.75
2022-09-16T15:38:57.692Z,94053.38
2022-09-16T15:41:04.315Z,94048.16
2022-09-16T15:43:19.172Z,94054.22
2022-09-16T15:45:20.774Z,94065.66
2022-09-16T15:47:29.381Z,94059.44
2022-09-16T15:49:32.924Z,94048.94
2022-09-16T15:51:49.933Z,94039.81
2022-09-16T15:53:52.635Z,94030.03
2022-09-16T15:56:04.937Z,94037.69
2022-09-16T15:58:15.505Z,94025.50
2022-09-16T16:00:17.120Z,94033.13
2022-09-16T16:02:37.887Z,94030.84
2022-09-16T16:04:39.755Z,94036.53
2022-09-16T16:06:55.441Z,94034.19
2022-09-16T16:08:58.187Z,94022.53
2022-09-16T16:11:09.082Z,94022.69
2022-09-16T16:13:10.687Z,94013.13
2022-09-16T16:15:13.388Z,94028.63
2022-09-16T16:17:23.965Z,94022.41
2022-09-16T16:19:26.384Z,94033.34
2022-09-16T16:21:27.985Z,94024.63
2022-09-16T16:23:29.654Z,94027.03
2022-09-16T16:25:31.359Z,94017.31
2022-09-16T16:27:33.676Z,94021.72
2022-09-16T16:29:35.383Z,94019.34
2022-09-16T16:31:37.448Z,94006.78
2022-09-16T16:33:45.028Z,94006.44
2022-09-16T16:35:46.691Z,94001.28
2022-09-16T16:37:48.591Z,93997.25
2022-09-16T16:39:50.217Z,93994.41
2022-09-16T16:41:54.076Z,93978.78
2022-09-16T16:43:55.719Z,93972.66
2022-09-16T16:45:57.745Z,93972.94
2022-09-16T16:47:59.671Z,93972.44
2022-09-16T16:50:01.742Z,93959.31
2022-09-16T16:52:05.254Z,93966.75
2022-09-16T16:54:07.062Z,93962.38
2022-09-16T16:56:14.809Z,93964.97
2022-09-16T16:58:16.989Z,93964.88
2022-09-16T17:00:19.549Z,93962.00
2022-09-16T17:02:21.357Z,93948.75
2022-09-16T17:04:23.901Z,93951.75
2022-09-16T17:06:25.696Z,93948.56
2022-09-16T17:08:27.434Z,93946.25
2022-09-16T17:10:29.580Z,93966.81
2022-09-16T17:12:31.373Z,93961.25
2022-09-16T17:14:33.582Z,93973.28
2022-09-16T17:16:35.535Z,93969.56
2022-09-16T17:18:38.658Z,93974.06
2022-09-16T17:20:40.381Z,93971.09
2022-09-16T17:22:41.930Z,93965.44
2022-09-16T17:24:43.529Z,93966.03
2022-09-16T17:26:46.241Z,93962.06
2022-09-16T17:28:49.611Z,93970.06
2022-09-16T17:30:51.544Z,93972.72
2022-09-16T17:32:53.183Z,93978.84
2022-09-16T17:34:54.805Z,93979.25
2022-09-16T17:36:58.497Z,93987.16
2022-09-16T17:39:02.536Z,93979.34
2022-09-16T17:41:05.736Z,93996.84
2022-09-16T17:43:07.434Z,94000.06
2022-09-16T17:45:09.371Z,93987.56
2022-09-16T17:47:11.042Z,93998.44
2022-09-16T17:49:17.463Z,93990.47
2022-09-16T17:51:19.557Z,93987.38
2022-09-16T17:53:21.481Z,93998.75
2022-09-16T17:55:23.094Z,93995.88
2022-09-16T17:57:27.973Z,93989.81
2022-09-16T17:59:32.808Z,94001.03
2022-09-16T18:01:35.249Z,93994.13
2022-09-16T18:03:37.697Z,94009.25
2022-09-16T18:05:39.695Z,94012.97
2022-09-16T18:07:45.848Z,93996.09
2022-09-16T18:09:47.609Z,94008.28
2022-09-16T18:11:49.211Z,94006.69
2022-09-16T18:13:58.818Z,94009.34
2022-09-16T18:16:12.333Z,93996.59
2022-09-16T18:18:15.064Z,93998.69
2022-09-16T18:20:16.956Z,94001.91
2022-09-16T18:22:18.854Z,94001.69
2022-09-16T18:24:20.630Z,94003.28
2022-09-16T18:26:22.959Z,94005.94
2022-09-16T18:28:24.533Z,94012.91
2022-09-16T18:30:26.151Z,94009.41
2022-09-16T18:32:29.341Z,94005.72
2022-09-16T18:34:33.631Z,94002.25
2022-09-16T18:36:37.073Z,94006.75
2022-09-16T18:38:39.486Z,94011.84
2022-09-16T18:40:41.754Z,94016.38
2022-09-16T18:42:43.493Z,94009.97
2022-09-16T18:44:45.065Z,94014.00
2022-09-16T18:46:47.329Z,94022.00
2022-09-16T18:48:49.892Z,94016.94
2022-09-16T18:50:51.762Z,94016.69
2022-09-16T18:52:53.387Z,94019.25
2022-09-16T18:54:55.027Z,94020.56
2022-09-16T18:56:59.154Z,94016.25
2022-09-16T19:01:28.133Z,94012.09
2022-09-16T19:03:29.870Z,94009.97
2022-09-16T19:05:31.415Z,94006.03
2022-09-16T19:07:33.019Z,94002.56
2022-09-16T19:09:36.483Z,94004.75
2022-09-16T19:11:39.110Z,93997.91
2022-09-16T19:13:41.132Z,93996.34
2022-09-16T19:15:42.791Z,93994.75
2022-09-16T19:17:44.513Z,93977.41
2022-09-16T19:19:47.965Z,93974.97
2022-09-16T19:21:49.644Z,93964.09
2022-09-16T19:24:00.038Z,93961.09
2022-09-16T19:26:03.440Z,93963.19
2022-09-16T19:28:05.095Z,93983.63
2022-09-16T19:30:07.768Z,93986.50
2022-09-16T19:32:09.488Z,93980.38
2022-09-16T19:34:12.876Z,93980.13
2022-09-16T19:36:20.187Z,93977.00
2022-09-16T19:38:23.403Z,93977.31
2022-09-16T19:40:25.819Z,93984.03
2022-09-16T19:42:27.674Z,93984.03
2022-09-16T19:44:29.927Z,93980.31
2022-09-16T19:46:34.888Z,93981.38
2022-09-16T19:48:38.877Z,93976.03
2022-09-16T19:50:44.409Z,93984.03
2022-09-16T19:52:47.513Z,93989.03
2022-09-16T19:54:49.717Z,93971.19
2022-09-16T19:56:51.809Z,93972.47
2022-09-16T19:58:54.354Z,93965.22
2022-09-16T20:01:01.035Z,93959.09
2022-09-16T20:03:02.889Z,93962.22
2022-09-16T20:05:07.242Z,93959.88
2022-09-16T20:07:16.852Z,93964.41
2022-09-16T20:09:19.818Z,93967.31
2022-09-16T20:11:23.586Z,93967.88
2022-09-16T20:13:25.345Z,93950.84
2022-09-16T20:15:27.025Z,93953.84
2022-09-16T20:17:28.663Z,93956.72
2022-09-16T20:19:30.274Z,93966.81
2022-09-16T20:21:34.994Z,93976.09
2022-09-16T20:23:38.216Z,93977.97
2022-09-16T20:25:40.808Z,93974.63
2022-09-16T20:27:42.414Z,93972.78
2022-09-16T20:29:44.009Z,93972.53
2022-09-16T20:31:47.065Z,93973.66
2022-09-16T20:33:49.556Z,93968.13
2022-09-16T20:35:51.495Z,93971.34
2022-09-16T20:37:53.108Z,93969.47
2022-09-16T20:39:56.520Z,93972.47
2022-09-16T20:41:58.574Z,93971.97
2022-09-16T20:44:00.222Z,93976.50
2022-09-16T20:46:13.698Z,93980.81
2022-09-16T20:48:15.367Z,93984.25
2022-09-16T20:50:17.082Z,93977.00
2022-09-16T20:52:18.896Z,93979.09
2022-09-16T20:54:20.503Z,93985.84
2022-09-16T20:56:22.406Z,93996.41
2022-09-16T20:58:24.104Z,93991.47
2022-09-16T21:00:26.304Z,93995.09
2022-09-16T21:02:27.944Z,93984.25
2022-09-16T21:04:29.939Z,93979.59
2022-09-16T21:06:32.805Z,93978.44
2022-09-16T21:08:36.968Z,93977.38
2022-09-16T21:10:39.006Z,93965.91
2022-09-16T21:12:40.640Z,93957.31
2022-09-16T21:14:42.244Z,93967.91
2022-09-16T21:16:45.789Z,93974.13
2022-09-16T21:18:47.904Z,93961.16
2022-09-16T21:20:49.826Z,93955.38
2022-09-16T21:22:51.885Z,93939.97
2022-09-16T21:24:53.493Z,93938.22
2022-09-16T21:26:55.114Z,93940.19
2022-09-16T21:28:58.917Z,93943.38
2022-09-16T21:31:02.228Z,93931.72
2022-09-16T21:33:03.943Z,93924.22
2022-09-16T21:35:06.043Z,93929.22
2022-09-16T21:37:07.629Z,93924.44
2022-09-16T21:39:09.271Z,93919.19
2022-09-16T21:41:13.182Z,93915.66
2022-09-16T21:43:14.802Z,93914.00
2022-09-16T21:45:16.369Z,93909.84
2022-09-16T21:47:18.024Z,93917.47
2022-09-16T21:49:24.356Z,93919.06
2022-09-16T21:51:26.688Z,93919.91
2022-09-16T21:53:28.267Z,93916.94
2022-09-16T21:55:30.377Z,93917.63
2022-09-16T21:57:32.059Z,93927.22
2022-09-16T21:59:33.683Z,93931.25
2022-09-16T22:01:36.019Z,93940.03
2022-09-16T22:03:39.002Z,93936.44
2022-09-16T22:05:40.870Z,93938.31
2022-09-16T22:07:42.636Z,93936.22
2022-09-16T22:09:44.476Z,93931.03
2022-09-16T22:11:46.657Z,93929.63
2022-09-16T22:13:48.740Z,93932.66
2022-09-16T22:15:51.154Z,93927.44
2022-09-16T22:17:54.233Z,93922.22
2022-09-16T22:19:55.817Z,93923.66
2022-09-16T22:21:57.533Z,93922.69
2022-09-16T22:24:00.305Z,93927.44
2022-09-16T22:26:10.475Z,93913.44
2022-09-16T22:28:12.713Z,93915.66
2022-09-16T22:30:14.356Z,93920.00
2022-09-16T22:32:15.996Z,93913.91
2022-09-16T22:34:17.961Z,93917.59
2022-09-16T22:36:21.996Z,93917.03
2022-09-16T22:38:23.951Z,93900.88
2022-09-16T22:40:25.674Z,93899.50
2022-09-16T22:42:27.312Z,93909.06
2022-09-16T22:44:28.977Z,93912.78
2022-09-16T22:46:32.947Z,93913.59
2022-09-16T22:48:34.956Z,93922.13
2022-09-16T22:50:36.687Z,93921.22
2022-09-16T22:52:38.324Z,93916.56
2022-09-16T22:54:39.952Z,93915.06
2022-09-16T22:56:43.021Z,93902.72
2022-09-16T22:58:45.610Z,93895.91
2022-09-16T23:00:47.291Z,93900.75
2022-09-16T23:02:48.892Z,93900.75
2022-09-16T23:04:50.459Z,93899.94
2022-09-16T23:06:52.097Z,93901.88
2022-09-16T23:08:54.098Z,93898.66
2022-09-16T23:10:56.239Z,93886.75
2022-09-16T23:12:59.596Z,93888.03
2022-09-16T23:15:01.462Z,93888.38
2022-09-16T23:17:03.088Z,93885.63
2022-09-16T23:19:07.185Z,93881.34
2022-09-16T23:21:10.831Z,93883.94
2022-09-16T23:23:12.327Z,93886.34
2022-09-16T23:25:14.090Z,93889.72
2022-09-16T23:27:15.981Z,93888.88
2022-09-16T23:29:18.453Z,93888.53
2022-09-16T23:31:22.129Z,93885.91
2022-09-16T23:33:23.779Z,93880.25
2022-09-16T23:35:25.421Z,93871.91
2022-09-16T23:37:26.977Z,93867.03
2022-09-16T23:39:29.526Z,93866.38
2022-09-16T23:41:32.098Z,93858.50
2022-09-16T23:43:33.940Z,93855.94
2022-09-16T23:45:35.816Z,93853.06
2022-09-16T23:47:37.408Z,93855.22
2022-09-16T23:49:39.289Z,93845.31
2022-09-16T23:51:41.147Z,93841.94
2022-09-16T23:53:42.715Z,93838.00
2022-09-16T23:55:44.733Z,93841.22
2022-09-16T23:57:46.693Z,93836.72
2022-09-16T23:59:48.342Z,93840.19
